sensor_id;sensor_type;location;lat;lon;timestamp;temperature;humidity
22008;DHT22;11168;56.976;24.168;2024-02-14T00:00:46;1.80;99.90
22008;DHT22;11168;56.976;24.168;2024-02-14T00:03:13;1.80;99.90
22008;DHT22;11168;56.976;24.168;2024-02-14T00:05:40;1.80;99.90
22008;DHT22;11168;56.976;24.168;2024-02-14T00:08:08;1.80;99.90
22008;DHT22;11168;56.976;24.168;2024-02-14T00:10:35;1.80;99.90
22008;DHT22;11168;56.976;24.168;2024-02-14T00:13:02;1.80;99.90
22008;DHT22;11168;56.976;24.168;2024-02-14T00:15:29;1.90;99.90
22008;DHT22;11168;56.976;24.168;2024-02-14T00:17:57;1.80;99.90
22008;DHT22;11168;56.976;24.168;2024-02-14T00:20:24;1.80;99.90
22008;DHT22;11168;56.976;24.168;2024-02-14T00:22:51;1.80;99.90
22008;DHT22;11168;56.976;24.168;2024-02-14T00:25:18;1.80;99.90
22008;DHT22;11168;56.976;24.168;2024-02-14T00:27:46;1.90;99.90
22008;DHT22;11168;56.976;24.168;2024-02-14T00:30:13;1.80;99.90
22008;DHT22;11168;56.976;24.168;2024-02-14T00:32:41;1.80;99.90
22008;DHT22;11168;56.976;24.168;2024-02-14T00:35:08;1.70;99.90
22008;DHT22;11168;56.976;24.168;2024-02-14T00:37:36;1.70;99.90
22008;DHT22;11168;56.976;24.168;2024-02-14T00:40:04;1.80;99.90
22008;DHT22;11168;56.976;24.168;2024-02-14T00:42:35;1.70;99.90
22008;DHT22;11168;56.976;24.168;2024-02-14T00:45:02;1.80;99.90
22008;DHT22;11168;56.976;24.168;2024-02-14T00:47:32;1.70;99.90
22008;DHT22;11168;56.976;24.168;2024-02-14T00:50:00;1.70;99.90
22008;DHT22;11168;56.976;24.168;2024-02-14T00:52:27;1.70;99.90
22008;DHT22;11168;56.976;24.168;2024-02-14T00:54:54;1.70;99.90
22008;DHT22;11168;56.976;24.168;2024-02-14T00:57:22;1.70;99.90
22008;DHT22;11168;56.976;24.168;2024-02-14T00:59:53;1.70;99.90
22008;DHT22;11168;56.976;24.168;2024-02-14T01:02:21;1.60;99.90
22008;DHT22;11168;56.976;24.168;2024-02-14T01:04:48;1.60;99.90
22008;DHT22;11168;56.976;24.168;2024-02-14T01:07:15;1.60;99.90
22008;DHT22;11168;56.976;24.168;2024-02-14T01:09:42;1.60;99.90
22008;DHT22;11168;56.976;24.168;2024-02-14T01:12:09;1.60;99.90
22008;DHT22;11168;56.976;24.168;2024-02-14T01:14:36;1.60;99.90
22008;DHT22;11168;56.976;24.168;2024-02-14T01:17:04;1.60;99.90
22008;DHT22;11168;56.976;24.168;2024-02-14T01:19:31;1.60;99.90
22008;DHT22;11168;56.976;24.168;2024-02-14T01:21:58;1.60;99.90
22008;DHT22;11168;56.976;24.168;2024-02-14T01:24:25;1.60;99.90
22008;DHT22;11168;56.976;24.168;2024-02-14T01:26:57;1.60;99.90
22008;DHT22;11168;56.976;24.168;2024-02-14T01:29:24;1.60;99.90
22008;DHT22;11168;56.976;24.168;2024-02-14T01:31:51;1.60;99.90
22008;DHT22;11168;56.976;24.168;2024-02-14T01:34:18;1.60;99.90
22008;DHT22;11168;56.976;24.168;2024-02-14T01:36:47;1.60;99.90
22008;DHT22;11168;56.976;24.168;2024-02-14T01:39:14;1.60;99.90
22008;DHT22;11168;56.976;24.168;2024-02-14T01:41:45;1.60;99.90
22008;DHT22;11168;56.976;24.168;2024-02-14T01:44:16;1.50;99.90
22008;DHT22;11168;56.976;24.168;2024-02-14T01:46:44;1.60;99.90
22008;DHT22;11168;56.976;24.168;2024-02-14T01:49:12;1.50;99.90
22008;DHT22;11168;56.976;24.168;2024-02-14T01:51:41;1.50;99.90
22008;DHT22;11168;56.976;24.168;2024-02-14T01:54:12;1.50;99.90
22008;DHT22;11168;56.976;24.168;2024-02-14T01:56:42;1.50;99.90
22008;DHT22;11168;56.976;24.168;2024-02-14T01:59:12;1.50;99.90
22008;DHT22;11168;56.976;24.168;2024-02-14T02:01:40;1.50;99.90
22008;DHT22;11168;56.976;24.168;2024-02-14T02:04:07;1.50;99.90
22008;DHT22;11168;56.976;24.168;2024-02-14T02:06:35;1.50;99.90
22008;DHT22;11168;56.976;24.168;2024-02-14T02:09:02;1.60;99.90
22008;DHT22;11168;56.976;24.168;2024-02-14T02:11:30;1.60;99.90
22008;DHT22;11168;56.976;24.168;2024-02-14T02:13:57;1.60;99.90
22008;DHT22;11168;56.976;24.168;2024-02-14T02:16:24;1.60;99.90
22008;DHT22;11168;56.976;24.168;2024-02-14T02:18:51;1.60;99.90
22008;DHT22;11168;56.976;24.168;2024-02-14T02:21:19;1.60;99.90
22008;DHT22;11168;56.976;24.168;2024-02-14T02:23:50;1.60;99.90
22008;DHT22;11168;56.976;24.168;2024-02-14T02:26:17;1.50;99.90
22008;DHT22;11168;56.976;24.168;2024-02-14T02:28:44;1.60;99.90
22008;DHT22;11168;56.976;24.168;2024-02-14T02:31:12;1.60;99.90
22008;DHT22;11168;56.976;24.168;2024-02-14T02:33:39;1.60;99.90
22008;DHT22;11168;56.976;24.168;2024-02-14T02:36:07;1.60;99.90
22008;DHT22;11168;56.976;24.168;2024-02-14T02:38:34;1.60;99.90
22008;DHT22;11168;56.976;24.168;2024-02-14T02:41:04;1.50;99.90
22008;DHT22;11168;56.976;24.168;2024-02-14T02:43:33;1.60;99.90
22008;DHT22;11168;56.976;24.168;2024-02-14T02:46:01;1.60;99.90
22008;DHT22;11168;56.976;24.168;2024-02-14T02:48:28;1.60;99.90
22008;DHT22;11168;56.976;24.168;2024-02-14T02:50:55;1.60;99.90
22008;DHT22;11168;56.976;24.168;2024-02-14T02:53:23;1.60;99.90
22008;DHT22;11168;56.976;24.168;2024-02-14T02:55:50;1.50;99.90
22008;DHT22;11168;56.976;24.168;2024-02-14T02:58:18;1.60;99.90
22008;DHT22;11168;56.976;24.168;2024-02-14T03:00:48;1.50;99.90
22008;DHT22;11168;56.976;24.168;2024-02-14T03:03:17;1.50;99.90
22008;DHT22;11168;56.976;24.168;2024-02-14T03:05:44;1.60;99.90
22008;DHT22;11168;56.976;24.168;2024-02-14T03:08:12;1.60;99.90
22008;DHT22;11168;56.976;24.168;2024-02-14T03:10:43;1.60;99.90
22008;DHT22;11168;56.976;24.168;2024-02-14T03:13:15;1.60;99.90
22008;DHT22;11168;56.976;24.168;2024-02-14T03:15:44;1.60;99.90
22008;DHT22;11168;56.976;24.168;2024-02-14T03:18:13;1.60;99.90
22008;DHT22;11168;56.976;24.168;2024-02-14T03:20:42;1.60;99.90
22008;DHT22;11168;56.976;24.168;2024-02-14T03:23:11;1.60;99.90
22008;DHT22;11168;56.976;24.168;2024-02-14T03:25:38;1.60;99.90
22008;DHT22;11168;56.976;24.168;2024-02-14T03:28:05;1.60;99.90
22008;DHT22;11168;56.976;24.168;2024-02-14T03:30:36;1.60;99.90
22008;DHT22;11168;56.976;24.168;2024-02-14T03:33:03;1.60;99.90
22008;DHT22;11168;56.976;24.168;2024-02-14T03:35:31;1.60;99.90
22008;DHT22;11168;56.976;24.168;2024-02-14T03:38:01;1.70;99.90
22008;DHT22;11168;56.976;24.168;2024-02-14T03:40:28;1.60;99.90
22008;DHT22;11168;56.976;24.168;2024-02-14T03:42:57;1.60;99.90
22008;DHT22;11168;56.976;24.168;2024-02-14T03:45:26;1.70;99.90
22008;DHT22;11168;56.976;24.168;2024-02-14T03:47:58;1.70;99.90
22008;DHT22;11168;56.976;24.168;2024-02-14T03:50:26;1.60;99.90
22008;DHT22;11168;56.976;24.168;2024-02-14T03:52:53;1.60;99.90
22008;DHT22;11168;56.976;24.168;2024-02-14T03:55:20;1.70;99.90
22008;DHT22;11168;56.976;24.168;2024-02-14T03:57:49;1.60;99.90
22008;DHT22;11168;56.976;24.168;2024-02-14T04:00:20;1.60;99.90
22008;DHT22;11168;56.976;24.168;2024-02-14T04:02:49;1.60;99.90
22008;DHT22;11168;56.976;24.168;2024-02-14T04:05:17;1.60;99.90
22008;DHT22;11168;56.976;24.168;2024-02-14T04:07:45;1.60;99.90
22008;DHT22;11168;56.976;24.168;2024-02-14T04:10:16;1.60;99.90
22008;DHT22;11168;56.976;24.168;2024-02-14T04:12:47;1.60;99.90
22008;DHT22;11168;56.976;24.168;2024-02-14T04:15:14;1.60;99.90
22008;DHT22;11168;56.976;24.168;2024-02-14T04:17:42;1.60;99.90
22008;DHT22;11168;56.976;24.168;2024-02-14T04:20:09;1.60;99.90
22008;DHT22;11168;56.976;24.168;2024-02-14T04:22:38;1.60;99.90
22008;DHT22;11168;56.976;24.168;2024-02-14T04:25:07;1.50;99.90
22008;DHT22;11168;56.976;24.168;2024-02-14T04:27:34;1.60;99.90
22008;DHT22;11168;56.976;24.168;2024-02-14T04:30:02;1.50;99.90
22008;DHT22;11168;56.976;24.168;2024-02-14T04:32:30;1.60;99.90
22008;DHT22;11168;56.976;24.168;2024-02-14T04:35:01;1.60;99.90
22008;DHT22;11168;56.976;24.168;2024-02-14T04:37:29;1.60;99.90
22008;DHT22;11168;56.976;24.168;2024-02-14T04:39:56;1.60;99.90
22008;DHT22;11168;56.976;24.168;2024-02-14T04:42:23;1.60;99.90
22008;DHT22;11168;56.976;24.168;2024-02-14T04:44:52;1.60;99.90
22008;DHT22;11168;56.976;24.168;2024-02-14T04:47:19;1.60;99.90
22008;DHT22;11168;56.976;24.168;2024-02-14T04:49:47;1.60;99.90
22008;DHT22;11168;56.976;24.168;2024-02-14T04:52:14;1.60;99.90
22008;DHT22;11168;56.976;24.168;2024-02-14T04:54:43;1.50;99.90
22008;DHT22;11168;56.976;24.168;2024-02-14T04:57:10;1.50;99.90
22008;DHT22;11168;56.976;24.168;2024-02-14T04:59:37;1.50;99.90
22008;DHT22;11168;56.976;24.168;2024-02-14T05:02:04;1.50;99.90
22008;DHT22;11168;56.976;24.168;2024-02-14T05:04:31;1.50;99.90
22008;DHT22;11168;56.976;24.168;2024-02-14T05:07:01;1.40;99.90
22008;DHT22;11168;56.976;24.168;2024-02-14T05:09:30;1.30;99.90
22008;DHT22;11168;56.976;24.168;2024-02-14T05:11:58;1.30;99.90
22008;DHT22;11168;56.976;24.168;2024-02-14T05:14:26;1.30;99.90
22008;DHT22;11168;56.976;24.168;2024-02-14T05:16:53;1.30;99.90
22008;DHT22;11168;56.976;24.168;2024-02-14T05:19:23;1.30;99.90
22008;DHT22;11168;56.976;24.168;2024-02-14T05:21:50;1.30;99.90
22008;DHT22;11168;56.976;24.168;2024-02-14T05:24:20;1.30;99.90
22008;DHT22;11168;56.976;24.168;2024-02-14T05:26:47;1.30;99.90
22008;DHT22;11168;56.976;24.168;2024-02-14T05:29:17;1.30;99.90
22008;DHT22;11168;56.976;24.168;2024-02-14T05:31:46;1.30;99.90
22008;DHT22;11168;56.976;24.168;2024-02-14T05:34:14;1.40;99.90
22008;DHT22;11168;56.976;24.168;2024-02-14T05:36:44;1.40;99.90
22008;DHT22;11168;56.976;24.168;2024-02-14T05:39:14;1.40;99.90
22008;DHT22;11168;56.976;24.168;2024-02-14T05:41:43;1.30;99.90
22008;DHT22;11168;56.976;24.168;2024-02-14T05:44:11;1.30;99.90
22008;DHT22;11168;56.976;24.168;2024-02-14T05:46:41;1.40;99.90
22008;DHT22;11168;56.976;24.168;2024-02-14T05:49:09;1.30;99.90
22008;DHT22;11168;56.976;24.168;2024-02-14T05:51:36;1.40;99.90
22008;DHT22;11168;56.976;24.168;2024-02-14T05:54:04;1.40;99.90
22008;DHT22;11168;56.976;24.168;2024-02-14T05:56:31;1.40;99.90
22008;DHT22;11168;56.976;24.168;2024-02-14T05:58:58;1.40;99.90
22008;DHT22;11168;56.976;24.168;2024-02-14T06:01:26;1.40;99.90
22008;DHT22;11168;56.976;24.168;2024-02-14T06:03:55;1.40;99.90
22008;DHT22;11168;56.976;24.168;2024-02-14T06:06:22;1.50;99.90
22008;DHT22;11168;56.976;24.168;2024-02-14T06:08:50;1.50;99.90
22008;DHT22;11168;56.976;24.168;2024-02-14T06:11:17;1.50;99.90
22008;DHT22;11168;56.976;24.168;2024-02-14T06:13:48;1.50;99.90
22008;DHT22;11168;56.976;24.168;2024-02-14T06:16:15;1.50;99.90
22008;DHT22;11168;56.976;24.168;2024-02-14T06:18:42;1.60;99.90
22008;DHT22;11168;56.976;24.168;2024-02-14T06:21:11;1.60;99.90
22008;DHT22;11168;56.976;24.168;2024-02-14T06:23:38;1.60;99.90
22008;DHT22;11168;56.976;24.168;2024-02-14T06:26:07;1.60;99.90
22008;DHT22;11168;56.976;24.168;2024-02-14T06:28:34;1.60;99.90
22008;DHT22;11168;56.976;24.168;2024-02-14T06:31:01;1.60;99.90
22008;DHT22;11168;56.976;24.168;2024-02-14T06:33:28;1.70;99.90
22008;DHT22;11168;56.976;24.168;2024-02-14T06:35:55;1.70;99.90
22008;DHT22;11168;56.976;24.168;2024-02-14T06:38:23;1.70;99.90
22008;DHT22;11168;56.976;24.168;2024-02-14T06:40:53;1.70;99.90
22008;DHT22;11168;56.976;24.168;2024-02-14T06:43:22;1.70;99.90
22008;DHT22;11168;56.976;24.168;2024-02-14T06:45:49;1.70;99.90
22008;DHT22;11168;56.976;24.168;2024-02-14T06:48:17;1.70;99.90
22008;DHT22;11168;56.976;24.168;2024-02-14T06:50:49;1.70;99.90
22008;DHT22;11168;56.976;24.168;2024-02-14T06:53:17;1.70;99.90
22008;DHT22;11168;56.976;24.168;2024-02-14T06:55:45;1.70;99.90
22008;DHT22;11168;56.976;24.168;2024-02-14T06:58:13;1.70;99.90
22008;DHT22;11168;56.976;24.168;2024-02-14T07:00:40;1.70;99.90
22008;DHT22;11168;56.976;24.168;2024-02-14T07:03:07;1.70;99.90
22008;DHT22;11168;56.976;24.168;2024-02-14T07:05:35;1.80;99.90
22008;DHT22;11168;56.976;24.168;2024-02-14T07:08:02;1.70;99.90
22008;DHT22;11168;56.976;24.168;2024-02-14T07:10:29;1.80;99.90
22008;DHT22;11168;56.976;24.168;2024-02-14T07:12:59;1.80;99.90
22008;DHT22;11168;56.976;24.168;2024-02-14T07:15:30;1.80;99.90
22008;DHT22;11168;56.976;24.168;2024-02-14T07:17:57;1.80;99.90
22008;DHT22;11168;56.976;24.168;2024-02-14T07:20:26;1.80;99.90
22008;DHT22;11168;56.976;24.168;2024-02-14T07:22:53;1.80;99.90
22008;DHT22;11168;56.976;24.168;2024-02-14T07:25:23;1.80;99.90
22008;DHT22;11168;56.976;24.168;2024-02-14T07:27:50;1.90;99.90
22008;DHT22;11168;56.976;24.168;2024-02-14T07:30:18;1.90;99.90
22008;DHT22;11168;56.976;24.168;2024-02-14T07:32:48;1.90;99.90
22008;DHT22;11168;56.976;24.168;2024-02-14T07:35:15;1.90;99.90
22008;DHT22;11168;56.976;24.168;2024-02-14T07:37:43;1.90;99.90
22008;DHT22;11168;56.976;24.168;2024-02-14T07:40:11;1.90;99.90
22008;DHT22;11168;56.976;24.168;2024-02-14T07:42:40;1.90;99.90
22008;DHT22;11168;56.976;24.168;2024-02-14T07:45:07;1.90;99.90
22008;DHT22;11168;56.976;24.168;2024-02-14T07:47:34;1.90;99.90
22008;DHT22;11168;56.976;24.168;2024-02-14T07:50:02;2.00;99.90
22008;DHT22;11168;56.976;24.168;2024-02-14T07:52:29;2.00;99.90
22008;DHT22;11168;56.976;24.168;2024-02-14T07:54:59;2.00;99.90
22008;DHT22;11168;56.976;24.168;2024-02-14T07:57:26;2.00;99.90
22008;DHT22;11168;56.976;24.168;2024-02-14T07:59:54;2.10;99.90
22008;DHT22;11168;56.976;24.168;2024-02-14T08:02:21;2.10;99.90
22008;DHT22;11168;56.976;24.168;2024-02-14T08:04:48;2.10;99.90
22008;DHT22;11168;56.976;24.168;2024-02-14T08:07:18;2.20;99.90
22008;DHT22;11168;56.976;24.168;2024-02-14T08:09:45;2.10;99.90
22008;DHT22;11168;56.976;24.168;2024-02-14T08:12:13;2.20;99.90
22008;DHT22;11168;56.976;24.168;2024-02-14T08:14:40;2.20;99.90
22008;DHT22;11168;56.976;24.168;2024-02-14T08:17:07;2.30;99.90
22008;DHT22;11168;56.976;24.168;2024-02-14T08:19:34;2.30;99.90
22008;DHT22;11168;56.976;24.168;2024-02-14T08:22:02;2.30;99.90
22008;DHT22;11168;56.976;24.168;2024-02-14T08:24:29;2.30;99.90
22008;DHT22;11168;56.976;24.168;2024-02-14T08:26:57;2.30;99.90
22008;DHT22;11168;56.976;24.168;2024-02-14T08:29:25;2.30;99.90
22008;DHT22;11168;56.976;24.168;2024-02-14T08:31:53;2.40;99.90
22008;DHT22;11168;56.976;24.168;2024-02-14T08:34:20;2.40;99.90
22008;DHT22;11168;56.976;24.168;2024-02-14T08:36:48;2.40;99.90
22008;DHT22;11168;56.976;24.168;2024-02-14T08:39:15;2.50;99.90
22008;DHT22;11168;56.976;24.168;2024-02-14T08:41:44;2.50;99.90
22008;DHT22;11168;56.976;24.168;2024-02-14T08:44:14;2.50;99.90
22008;DHT22;11168;56.976;24.168;2024-02-14T08:46:43;2.60;99.90
22008;DHT22;11168;56.976;24.168;2024-02-14T08:49:11;2.60;99.90
22008;DHT22;11168;56.976;24.168;2024-02-14T08:51:39;2.50;99.90
22008;DHT22;11168;56.976;24.168;2024-02-14T08:54:06;2.60;99.90
22008;DHT22;11168;56.976;24.168;2024-02-14T08:56:34;2.60;99.90
22008;DHT22;11168;56.976;24.168;2024-02-14T08:59:02;2.70;99.90
22008;DHT22;11168;56.976;24.168;2024-02-14T09:01:30;2.70;99.90
22008;DHT22;11168;56.976;24.168;2024-02-14T09:03:57;2.70;99.90
22008;DHT22;11168;56.976;24.168;2024-02-14T09:06:26;2.70;99.90
22008;DHT22;11168;56.976;24.168;2024-02-14T09:08:53;2.60;99.90
22008;DHT22;11168;56.976;24.168;2024-02-14T09:11:20;2.70;99.90
22008;DHT22;11168;56.976;24.168;2024-02-14T09:13:49;2.70;99.90
22008;DHT22;11168;56.976;24.168;2024-02-14T09:16:20;2.70;99.90
22008;DHT22;11168;56.976;24.168;2024-02-14T09:18:50;2.80;99.90
22008;DHT22;11168;56.976;24.168;2024-02-14T09:21:17;2.80;99.90
22008;DHT22;11168;56.976;24.168;2024-02-14T09:23:47;2.90;99.90
22008;DHT22;11168;56.976;24.168;2024-02-14T09:26:15;2.90;99.90
22008;DHT22;11168;56.976;24.168;2024-02-14T09:28:43;2.90;99.90
22008;DHT22;11168;56.976;24.168;2024-02-14T09:31:11;2.90;99.90
22008;DHT22;11168;56.976;24.168;2024-02-14T09:33:39;2.90;99.90
22008;DHT22;11168;56.976;24.168;2024-02-14T09:36:08;2.90;99.90
22008;DHT22;11168;56.976;24.168;2024-02-14T09:38:35;2.90;99.90
22008;DHT22;11168;56.976;24.168;2024-02-14T09:41:17;2.90;99.90
22008;DHT22;11168;56.976;24.168;2024-02-14T09:43:49;2.90;99.90
22008;DHT22;11168;56.976;24.168;2024-02-14T09:46:19;2.90;99.90
22008;DHT22;11168;56.976;24.168;2024-02-14T09:48:52;2.90;99.90
22008;DHT22;11168;56.976;24.168;2024-02-14T09:51:19;2.90;99.90
22008;DHT22;11168;56.976;24.168;2024-02-14T09:53:46;2.90;99.90
22008;DHT22;11168;56.976;24.168;2024-02-14T09:56:17;2.90;99.90
22008;DHT22;11168;56.976;24.168;2024-02-14T09:58:50;3.00;99.90
22008;DHT22;11168;56.976;24.168;2024-02-14T10:01:24;3.00;99.90
22008;DHT22;11168;56.976;24.168;2024-02-14T10:03:53;3.00;99.90
22008;DHT22;11168;56.976;24.168;2024-02-14T10:06:21;3.00;99.90
22008;DHT22;11168;56.976;24.168;2024-02-14T10:08:51;3.00;99.90
22008;DHT22;11168;56.976;24.168;2024-02-14T10:11:30;3.00;99.90
22008;DHT22;11168;56.976;24.168;2024-02-14T10:14:00;3.00;99.90
22008;DHT22;11168;56.976;24.168;2024-02-14T10:16:31;3.00;99.90
22008;DHT22;11168;56.976;24.168;2024-02-14T10:18:58;3.00;99.90
22008;DHT22;11168;56.976;24.168;2024-02-14T10:21:25;3.00;99.90
22008;DHT22;11168;56.976;24.168;2024-02-14T10:23:59;3.00;99.90
22008;DHT22;11168;56.976;24.168;2024-02-14T10:26:29;3.10;99.90
22008;DHT22;11168;56.976;24.168;2024-02-14T10:28:57;3.10;99.90
22008;DHT22;11168;56.976;24.168;2024-02-14T10:31:27;3.10;99.90
22008;DHT22;11168;56.976;24.168;2024-02-14T10:33:55;3.10;99.90
22008;DHT22;11168;56.976;24.168;2024-02-14T10:36:26;3.10;99.90
22008;DHT22;11168;56.976;24.168;2024-02-14T10:38:53;3.20;99.90
22008;DHT22;11168;56.976;24.168;2024-02-14T10:41:24;3.20;99.90
22008;DHT22;11168;56.976;24.168;2024-02-14T10:43:52;3.30;99.90
22008;DHT22;11168;56.976;24.168;2024-02-14T10:46:20;3.30;99.90
22008;DHT22;11168;56.976;24.168;2024-02-14T10:49:05;3.30;99.90
22008;DHT22;11168;56.976;24.168;2024-02-14T10:51:38;3.20;99.90
22008;DHT22;11168;56.976;24.168;2024-02-14T10:54:11;3.20;99.90
22008;DHT22;11168;56.976;24.168;2024-02-14T10:56:42;3.20;99.90
22008;DHT22;11168;56.976;24.168;2024-02-14T10:59:18;3.30;99.90
22008;DHT22;11168;56.976;24.168;2024-02-14T11:01:48;3.20;99.90
22008;DHT22;11168;56.976;24.168;2024-02-14T11:04:16;3.30;99.90
22008;DHT22;11168;56.976;24.168;2024-02-14T11:06:48;3.30;99.90
22008;DHT22;11168;56.976;24.168;2024-02-14T11:09:16;3.30;99.90
22008;DHT22;11168;56.976;24.168;2024-02-14T11:11:45;3.40;99.90
22008;DHT22;11168;56.976;24.168;2024-02-14T11:14:20;3.40;99.90
22008;DHT22;11168;56.976;24.168;2024-02-14T11:16:52;3.50;99.90
22008;DHT22;11168;56.976;24.168;2024-02-14T11:19:33;3.50;99.90
22008;DHT22;11168;56.976;24.168;2024-02-14T11:22:19;3.50;99.90
22008;DHT22;11168;56.976;24.168;2024-02-14T11:24:47;3.40;99.90
22008;DHT22;11168;56.976;24.168;2024-02-14T11:27:14;3.40;99.90
22008;DHT22;11168;56.976;24.168;2024-02-14T11:30:00;3.40;99.90
22008;DHT22;11168;56.976;24.168;2024-02-14T11:32:28;3.40;99.90
22008;DHT22;11168;56.976;24.168;2024-02-14T11:34:56;3.50;99.90
22008;DHT22;11168;56.976;24.168;2024-02-14T11:37:29;3.60;99.90
22008;DHT22;11168;56.976;24.168;2024-02-14T11:39:58;3.90;99.90
22008;DHT22;11168;56.976;24.168;2024-02-14T11:42:27;5.40;99.90
22008;DHT22;11168;56.976;24.168;2024-02-14T11:44:56;6.40;99.90
22008;DHT22;11168;56.976;24.168;2024-02-14T11:47:24;6.50;99.90
22008;DHT22;11168;56.976;24.168;2024-02-14T11:49:52;6.60;99.90
22008;DHT22;11168;56.976;24.168;2024-02-14T11:52:20;6.40;99.90
22008;DHT22;11168;56.976;24.168;2024-02-14T11:54:47;5.80;99.90
22008;DHT22;11168;56.976;24.168;2024-02-14T11:57:19;5.70;99.90
22008;DHT22;11168;56.976;24.168;2024-02-14T11:59:49;5.40;99.90
22008;DHT22;11168;56.976;24.168;2024-02-14T12:02:20;5.10;99.90
22008;DHT22;11168;56.976;24.168;2024-02-14T12:04:51;4.80;99.90
22008;DHT22;11168;56.976;24.168;2024-02-14T12:07:23;4.70;99.90
22008;DHT22;11168;56.976;24.168;2024-02-14T12:09:51;4.80;99.90
22008;DHT22;11168;56.976;24.168;2024-02-14T12:12:19;4.70;99.90
22008;DHT22;11168;56.976;24.168;2024-02-14T12:14:47;5.10;99.90
22008;DHT22;11168;56.976;24.168;2024-02-14T12:17:17;5.40;99.90
22008;DHT22;11168;56.976;24.168;2024-02-14T12:19:48;5.40;99.90
22008;DHT22;11168;56.976;24.168;2024-02-14T12:22:17;5.00;99.90
22008;DHT22;11168;56.976;24.168;2024-02-14T12:24:45;4.60;99.90
22008;DHT22;11168;56.976;24.168;2024-02-14T12:27:16;4.30;99.90
22008;DHT22;11168;56.976;24.168;2024-02-14T12:29:46;4.30;99.90
22008;DHT22;11168;56.976;24.168;2024-02-14T12:32:16;4.20;99.90
22008;DHT22;11168;56.976;24.168;2024-02-14T12:34:44;4.20;99.90
22008;DHT22;11168;56.976;24.168;2024-02-14T12:37:12;4.10;99.90
22008;DHT22;11168;56.976;24.168;2024-02-14T12:39:39;4.00;99.90
22008;DHT22;11168;56.976;24.168;2024-02-14T12:42:10;3.90;99.90
22008;DHT22;11168;56.976;24.168;2024-02-14T12:44:38;3.90;99.90
22008;DHT22;11168;56.976;24.168;2024-02-14T12:47:07;3.90;99.90
22008;DHT22;11168;56.976;24.168;2024-02-14T12:49:35;3.80;99.90
22008;DHT22;11168;56.976;24.168;2024-02-14T12:52:02;3.80;99.90
22008;DHT22;11168;56.976;24.168;2024-02-14T12:54:31;3.80;99.90
22008;DHT22;11168;56.976;24.168;2024-02-14T12:56:59;3.90;99.90
22008;DHT22;11168;56.976;24.168;2024-02-14T12:59:26;3.90;99.90
22008;DHT22;11168;56.976;24.168;2024-02-14T13:01:53;3.90;99.90
22008;DHT22;11168;56.976;24.168;2024-02-14T13:04:22;3.90;99.90
22008;DHT22;11168;56.976;24.168;2024-02-14T13:06:52;3.90;99.90
22008;DHT22;11168;56.976;24.168;2024-02-14T13:09:21;3.90;99.90
22008;DHT22;11168;56.976;24.168;2024-02-14T13:11:48;4.00;99.90
22008;DHT22;11168;56.976;24.168;2024-02-14T13:14:17;4.10;99.90
22008;DHT22;11168;56.976;24.168;2024-02-14T13:16:47;4.10;99.90
22008;DHT22;11168;56.976;24.168;2024-02-14T13:19:14;4.10;99.90
22008;DHT22;11168;56.976;24.168;2024-02-14T13:21:45;4.00;99.90
22008;DHT22;11168;56.976;24.168;2024-02-14T13:24:15;4.00;99.90
22008;DHT22;11168;56.976;24.168;2024-02-14T13:26:43;4.00;99.90
22008;DHT22;11168;56.976;24.168;2024-02-14T13:29:11;3.90;99.90
22008;DHT22;11168;56.976;24.168;2024-02-14T13:31:39;3.90;99.90
22008;DHT22;11168;56.976;24.168;2024-02-14T13:34:09;3.90;99.90
22008;DHT22;11168;56.976;24.168;2024-02-14T13:36:36;3.90;99.90
22008;DHT22;11168;56.976;24.168;2024-02-14T13:39:07;3.90;99.90
22008;DHT22;11168;56.976;24.168;2024-02-14T13:41:35;3.90;99.90
22008;DHT22;11168;56.976;24.168;2024-02-14T13:44:07;3.90;99.90
22008;DHT22;11168;56.976;24.168;2024-02-14T13:46:37;3.90;99.90
22008;DHT22;11168;56.976;24.168;2024-02-14T13:49:06;3.90;99.90
22008;DHT22;11168;56.976;24.168;2024-02-14T13:51:33;4.00;99.90
22008;DHT22;11168;56.976;24.168;2024-02-14T13:54:01;4.00;99.90
22008;DHT22;11168;56.976;24.168;2024-02-14T13:56:29;4.00;99.90
22008;DHT22;11168;56.976;24.168;2024-02-14T13:58:58;4.10;99.90
22008;DHT22;11168;56.976;24.168;2024-02-14T14:01:25;4.10;99.90
22008;DHT22;11168;56.976;24.168;2024-02-14T14:03:53;4.10;99.90
22008;DHT22;11168;56.976;24.168;2024-02-14T14:06:22;4.10;99.90
22008;DHT22;11168;56.976;24.168;2024-02-14T14:08:51;4.10;99.90
22008;DHT22;11168;56.976;24.168;2024-02-14T14:11:18;4.10;99.90
22008;DHT22;11168;56.976;24.168;2024-02-14T14:13:49;4.10;99.90
22008;DHT22;11168;56.976;24.168;2024-02-14T14:16:16;4.00;99.90
22008;DHT22;11168;56.976;24.168;2024-02-14T14:18:44;3.90;99.90
22008;DHT22;11168;56.976;24.168;2024-02-14T14:21:11;3.90;99.90
22008;DHT22;11168;56.976;24.168;2024-02-14T14:23:38;3.90;99.90
22008;DHT22;11168;56.976;24.168;2024-02-14T14:26:08;3.80;99.90
22008;DHT22;11168;56.976;24.168;2024-02-14T14:28:36;3.80;99.90
22008;DHT22;11168;56.976;24.168;2024-02-14T14:31:03;3.80;99.90
22008;DHT22;11168;56.976;24.168;2024-02-14T14:33:30;3.70;99.90
22008;DHT22;11168;56.976;24.168;2024-02-14T14:35:58;3.70;99.90
22008;DHT22;11168;56.976;24.168;2024-02-14T14:38:28;3.60;99.90
22008;DHT22;11168;56.976;24.168;2024-02-14T14:40:58;3.60;99.90
22008;DHT22;11168;56.976;24.168;2024-02-14T14:43:26;3.50;99.90
22008;DHT22;11168;56.976;24.168;2024-02-14T14:45:55;3.50;99.90
22008;DHT22;11168;56.976;24.168;2024-02-14T14:48:25;3.50;99.90
22008;DHT22;11168;56.976;24.168;2024-02-14T14:50:52;3.30;99.90
22008;DHT22;11168;56.976;24.168;2024-02-14T14:53:25;3.30;99.90
22008;DHT22;11168;56.976;24.168;2024-02-14T14:55:56;3.30;99.90
22008;DHT22;11168;56.976;24.168;2024-02-14T14:58:24;3.30;99.90
22008;DHT22;11168;56.976;24.168;2024-02-14T15:00:56;3.20;99.90
22008;DHT22;11168;56.976;24.168;2024-02-14T15:03:24;3.20;99.90
22008;DHT22;11168;56.976;24.168;2024-02-14T15:05:52;3.20;99.90
22008;DHT22;11168;56.976;24.168;2024-02-14T15:08:20;3.10;99.90
22008;DHT22;11168;56.976;24.168;2024-02-14T15:10:56;3.10;99.90
22008;DHT22;11168;56.976;24.168;2024-02-14T15:13:24;3.10;99.90
22008;DHT22;11168;56.976;24.168;2024-02-14T15:15:52;3.10;99.90
22008;DHT22;11168;56.976;24.168;2024-02-14T15:18:20;3.10;99.90
22008;DHT22;11168;56.976;24.168;2024-02-14T15:20:47;3.00;99.90
22008;DHT22;11168;56.976;24.168;2024-02-14T15:23:14;3.00;99.90
22008;DHT22;11168;56.976;24.168;2024-02-14T15:25:41;3.00;99.90
22008;DHT22;11168;56.976;24.168;2024-02-14T15:28:11;3.00;99.90
22008;DHT22;11168;56.976;24.168;2024-02-14T15:30:50;3.00;99.90
22008;DHT22;11168;56.976;24.168;2024-02-14T15:33:38;3.00;99.90
22008;DHT22;11168;56.976;24.168;2024-02-14T15:36:06;3.10;99.90
22008;DHT22;11168;56.976;24.168;2024-02-14T15:38:35;3.10;99.90